Time;durP1;ratioP1;P1;durP2;ratioP2;P2;SDS_P1;SDS_P2;PMS_P1;PMS_P2;Temp;Humidity;BMP_temperature;BMP_pressure;BME280_temperature;BME280_humidity;BME280_pressure;Samples;Min_cycle;Max_cycle;Signal;HPM_P1;HPM_P2
2022/11/08 00:01:37;;;;;;;14.90;11.18;;;;;;;;;;5013005;28;20492;-70
2022/11/08 00:04:05;;;;;;;18.27;10.88;;;;;;;;;;5012981;28;20034;-70
2022/11/08 00:14:43;;;;;;;19.65;11.98;;;;;;;;;;5010579;28;20034;-71
2022/11/08 00:17:08;;;;;;;17.60;11.55;;;;;;;;;;5010918;28;20057;-71
2022/11/08 00:19:34;;;;;;;18.45;10.93;;;;;;;;;;5012469;28;20084;-69
2022/11/08 00:21:59;;;;;;;15.55;10.98;;;;;;;;;;5012224;28;20065;-69
2022/11/08 00:24:25;;;;;;;16.77;11.32;;;;;;;;;;5012817;28;20030;-69
2022/11/08 00:26:50;;;;;;;17.02;11.80;;;;;;;;;;5012900;28;20026;-77
2022/11/08 00:29:17;;;;;;;17.52;10.95;;;;;;;;;;5011980;28;20049;-79
2022/11/08 00:31:43;;;;;;;17.15;11.95;;;;;;;;;;5014016;28;20029;-79
2022/11/08 00:34:08;;;;;;;17.05;11.57;;;;;;;;;;5013887;28;20033;-79
2022/11/08 00:36:33;;;;;;;18.20;11.48;;;;;;;;;;5014274;28;20049;-78
2022/11/08 00:38:59;;;;;;;17.80;11.40;;;;;;;;;;5012654;28;20452;-77
2022/11/08 00:41:24;;;;;;;17.45;11.60;;;;;;;;;;5012602;28;20420;-76
2022/11/08 00:43:50;;;;;;;17.48;12.40;;;;;;;;;;5012099;28;20517;-77
2022/11/08 00:46:15;;;;;;;19.92;12.27;;;;;;;;;;5015907;28;20030;-77
2022/11/08 00:48:40;;;;;;;22.30;12.57;;;;;;;;;;5017728;28;20104;-77
2022/11/08 00:51:07;;;;;;;18.08;13.35;;;;;;;;;;5016533;28;20467;-77
2022/11/08 00:53:35;;;;;;;27.20;14.55;;;;;;;;;;5011949;28;20041;-78
2022/11/08 00:56:01;;;;;;;22.15;14.32;;;;;;;;;;5013745;28;20034;-78
2022/11/08 00:58:27;;;;;;;21.67;13.85;;;;;;;;;;5013773;28;20041;-78
2022/11/08 01:00:52;;;;;;;20.45;13.65;;;;;;;;;;5013439;28;20022;-78
2022/11/08 01:03:18;;;;;;;21.98;13.27;;;;;;;;;;5013243;28;20040;-77
2022/11/08 01:05:43;;;;;;;23.00;14.27;;;;;;;;;;5013727;28;20029;-80
2022/11/08 01:08:09;;;;;;;19.83;13.38;;;;;;;;;;5014143;28;20117;-79
2022/11/08 01:10:34;;;;;;;22.58;13.77;;;;;;;;;;5014124;28;20014;-79
2022/11/08 01:13:02;;;;;;;24.38;14.50;;;;;;;;;;5013804;28;20114;-80
2022/11/08 01:15:28;;;;;;;21.70;14.25;;;;;;;;;;5012703;28;20385;-80
2022/11/08 01:17:55;;;;;;;21.55;14.57;;;;;;;;;;5013704;28;20025;-79
2022/11/08 01:20:21;;;;;;;19.73;13.93;;;;;;;;;;5012860;28;20466;-77
2022/11/08 01:22:46;;;;;;;22.58;15.18;;;;;;;;;;5013489;28;20034;-77
2022/11/08 01:25:11;;;;;;;20.85;13.57;;;;;;;;;;5012509;28;20014;-78
2022/11/08 01:27:38;;;;;;;21.83;13.18;;;;;;;;;;5012414;28;20112;-77
2022/11/08 01:30:03;;;;;;;18.42;13.18;;;;;;;;;;5012522;28;20548;-71
2022/11/08 01:32:29;;;;;;;23.60;14.25;;;;;;;;;;5010029;28;20038;-71
2022/11/08 01:34:54;;;;;;;22.02;13.40;;;;;;;;;;5011268;28;20037;-71
2022/11/08 01:37:19;;;;;;;20.27;13.30;;;;;;;;;;5012042;28;20030;-71
2022/11/08 01:39:44;;;;;;;23.40;13.88;;;;;;;;;;5011785;28;20065;-71
2022/11/08 01:42:10;;;;;;;19.95;12.57;;;;;;;;;;5010352;28;20038;-71
2022/11/08 01:44:56;;;;;;;20.50;13.82;;;;;;;;;;5013331;28;20030;-71
2022/11/08 01:47:22;;;;;;;20.40;12.93;;;;;;;;;;5015580;28;20450;-71
2022/11/08 01:49:47;;;;;;;21.75;13.95;;;;;;;;;;5015610;28;20049;-71
2022/11/08 01:52:24;;;;;;;21.25;13.10;;;;;;;;;;5016067;28;20034;-71
2022/11/08 01:54:58;;;;;;;22.17;13.80;;;;;;;;;;5014874;28;20030;-71
2022/11/08 01:57:30;;;;;;;18.88;13.52;;;;;;;;;;5014555;28;20033;-71
2022/11/08 01:59:58;;;;;;;22.20;13.65;;;;;;;;;;5014450;28;20029;-72
2022/11/08 02:02:23;;;;;;;20.30;13.32;;;;;;;;;;5012396;28;20029;-71
2022/11/08 02:04:50;;;;;;;18.55;13.15;;;;;;;;;;5014139;28;20034;-71
2022/11/08 02:07:15;;;;;;;19.83;12.80;;;;;;;;;;5014472;28;20030;-71
2022/11/08 02:09:42;;;;;;;21.40;13.82;;;;;;;;;;5014470;28;20072;-71
2022/11/08 02:12:08;;;;;;;18.73;13.27;;;;;;;;;;5012294;28;20752;-71
2022/11/08 02:14:35;;;;;;;22.38;14.25;;;;;;;;;;5013747;28;20029;-72
2022/11/08 02:17:00;;;;;;;23.02;14.23;;;;;;;;;;5012005;28;20037;-72
2022/11/08 02:19:30;;;;;;;21.67;13.75;;;;;;;;;;5014175;28;20034;-72
2022/11/08 02:21:57;;;;;;;23.67;13.57;;;;;;;;;;5015113;28;20028;-71
2022/11/08 02:24:22;;;;;;;21.38;13.73;;;;;;;;;;5013554;28;20127;-71
2022/11/08 02:26:48;;;;;;;19.48;12.88;;;;;;;;;;5014867;28;20546;-71
2022/11/08 02:29:23;;;;;;;22.02;13.40;;;;;;;;;;5014471;28;20042;-71
2022/11/08 02:31:49;;;;;;;20.58;13.75;;;;;;;;;;5013099;28;20038;-71
2022/11/08 02:34:14;;;;;;;21.52;13.10;;;;;;;;;;5014756;28;20441;-71
2022/11/08 02:36:41;;;;;;;22.80;13.95;;;;;;;;;;5014676;28;20172;-71
2022/11/08 02:39:06;;;;;;;18.60;12.90;;;;;;;;;;5014828;28;20529;-70
2022/11/08 02:41:32;;;;;;;20.40;12.57;;;;;;;;;;5013643;28;20113;-71
2022/11/08 02:43:58;;;;;;;20.80;13.30;;;;;;;;;;5013161;28;20469;-71
2022/11/08 02:46:23;;;;;;;19.20;13.40;;;;;;;;;;5012490;28;20123;-71
2022/11/08 02:48:50;;;;;;;19.20;13.32;;;;;;;;;;5013128;28;20420;-71
2022/11/08 02:51:15;;;;;;;19.98;13.15;;;;;;;;;;5014269;28;20029;-70
2022/11/08 02:53:40;;;;;;;20.90;13.55;;;;;;;;;;5014541;28;20382;-71
2022/11/08 02:56:06;;;;;;;20.73;12.90;;;;;;;;;;5013608;28;20037;-71
2022/11/08 02:58:31;;;;;;;21.90;13.63;;;;;;;;;;5014408;28;20026;-71
2022/11/08 03:00:57;;;;;;;20.92;13.02;;;;;;;;;;5014412;28;20030;-71
2022/11/08 03:03:22;;;;;;;19.60;13.13;;;;;;;;;;5014157;28;20025;-72
2022/11/08 03:05:47;;;;;;;20.70;13.27;;;;;;;;;;5014163;28;20038;-71
2022/11/08 03:08:13;;;;;;;18.88;13.52;;;;;;;;;;5014228;28;20022;-71
2022/11/08 03:10:38;;;;;;;20.27;14.23;;;;;;;;;;5013902;28;20034;-71
2022/11/08 03:13:05;;;;;;;22.92;13.95;;;;;;;;;;5013981;28;20010;-71
2022/11/08 03:15:30;;;;;;;21.17;14.23;;;;;;;;;;5013915;28;20069;-71
2022/11/08 03:17:56;;;;;;;22.27;13.63;;;;;;;;;;5013448;28;20112;-71
2022/11/08 03:20:22;;;;;;;22.33;14.15;;;;;;;;;;5011288;28;20041;-72
2022/11/08 03:22:47;;;;;;;20.02;13.55;;;;;;;;;;5013478;28;20026;-71
2022/11/08 03:25:13;;;;;;;23.08;14.65;;;;;;;;;;5014012;28;20049;-71
2022/11/08 03:27:38;;;;;;;21.02;14.00;;;;;;;;;;5013799;28;20440;-72
2022/11/08 03:30:05;;;;;;;20.25;13.85;;;;;;;;;;5013775;28;20125;-71
2022/11/08 03:32:30;;;;;;;19.67;13.35;;;;;;;;;;5012186;28;20036;-71
2022/11/08 03:34:58;;;;;;;19.25;13.65;;;;;;;;;;5013788;28;20452;-71
2022/11/08 03:37:24;;;;;;;20.95;13.85;;;;;;;;;;5013769;28;20459;-72
2022/11/08 03:39:50;;;;;;;19.52;14.10;;;;;;;;;;5013212;28;20468;-73
2022/11/08 03:42:15;;;;;;;21.42;13.45;;;;;;;;;;5013499;28;20038;-71
2022/11/08 03:44:40;;;;;;;19.13;13.52;;;;;;;;;;5013371;28;20036;-71
2022/11/08 03:47:06;;;;;;;19.85;13.48;;;;;;;;;;5013284;28;20026;-71
2022/11/08 03:49:31;;;;;;;19.65;12.80;;;;;;;;;;5013172;28;20022;-71
2022/11/08 03:51:57;;;;;;;21.38;13.13;;;;;;;;;;5013827;28;20359;-72
2022/11/08 03:54:22;;;;;;;21.40;13.52;;;;;;;;;;5013894;28;20041;-71
2022/11/08 03:56:48;;;;;;;19.20;13.05;;;;;;;;;;5013275;28;20544;-72
2022/11/08 03:59:13;;;;;;;19.63;13.60;;;;;;;;;;5012430;28;20065;-71
2022/11/08 04:01:38;;;;;;;22.20;14.00;;;;;;;;;;5013106;28;20022;-72
2022/11/08 04:04:07;;;;;;;20.20;14.30;;;;;;;;;;5012485;28;20091;-72
2022/11/08 04:06:33;;;;;;;23.02;12.63;;;;;;;;;;5013123;28;20032;-72
2022/11/08 04:08:58;;;;;;;19.35;13.65;;;;;;;;;;5009926;28;20026;-72
2022/11/08 04:16:52;;;;;;;19.60;13.45;;;;;;;;;;5012992;28;20034;-72
2022/11/08 04:22:02;;;;;;;20.02;14.48;;;;;;;;;;5012873;28;20065;-72
2022/11/08 04:24:27;;;;;;;18.52;12.93;;;;;;;;;;5013447;28;20064;-72
2022/11/08 04:26:53;;;;;;;22.38;14.05;;;;;;;;;;5011543;28;20037;-72
2022/11/08 04:29:18;;;;;;;19.50;12.63;;;;;;;;;;5012767;28;20511;-72
2022/11/08 04:31:43;;;;;;;21.55;13.70;;;;;;;;;;5012342;28;20044;-72
2022/11/08 04:34:09;;;;;;;23.17;14.82;;;;;;;;;;5011000;28;20040;-72
2022/11/08 04:36:34;;;;;;;20.98;14.23;;;;;;;;;;5010434;28;20426;-71
2022/11/08 04:38:59;;;;;;;19.88;13.25;;;;;;;;;;5010799;28;20026;-71
2022/11/08 04:41:25;;;;;;;18.35;12.27;;;;;;;;;;5012410;28;20088;-71
2022/11/08 04:43:52;;;;;;;22.85;13.43;;;;;;;;;;5011843;28;20030;-71
2022/11/08 04:46:19;;;;;;;20.25;12.82;;;;;;;;;;5010396;28;20482;-71
2022/11/08 04:48:44;;;;;;;22.48;14.95;;;;;;;;;;5011576;28;20053;-70
2022/11/08 04:51:12;;;;;;;22.35;14.07;;;;;;;;;;5011002;28;20467;-71
2022/11/08 04:53:37;;;;;;;22.92;15.10;;;;;;;;;;5010736;28;20029;-71
2022/11/08 04:56:04;;;;;;;20.63;13.82;;;;;;;;;;5012340;28;20026;-70
2022/11/08 04:58:40;;;;;;;20.58;13.80;;;;;;;;;;5011912;28;20026;-70
2022/11/08 05:01:06;;;;;;;20.25;13.57;;;;;;;;;;5012115;28;20409;-71
2022/11/08 05:03:32;;;;;;;19.42;13.30;;;;;;;;;;5012113;28;20053;-70
2022/11/08 05:06:01;;;;;;;19.52;13.48;;;;;;;;;;5009493;28;20394;-70
2022/11/08 05:08:26;;;;;;;20.45;13.88;;;;;;;;;;5012122;28;20394;-70
2022/11/08 05:10:52;;;;;;;20.40;13.32;;;;;;;;;;5012066;28;20030;-70
2022/11/08 05:13:17;;;;;;;20.58;12.82;;;;;;;;;;5010405;28;20021;-70
2022/11/08 05:15:43;;;;;;;21.10;13.60;;;;;;;;;;5012054;28;20041;-70
2022/11/08 05:18:08;;;;;;;19.40;13.68;;;;;;;;;;5030176;28;20116;-70
2022/11/08 05:23:23;;;;;;;22.40;12.85;;;;;;;;;;5031761;28;20057;-70
2022/11/08 05:25:49;;;;;;;22.50;13.50;;;;;;;;;;5030687;28;20033;-71
2022/11/08 05:28:15;;;;;;;21.85;13.73;;;;;;;;;;5031426;28;20021;-71
2022/11/08 05:30:41;;;;;;;21.05;13.40;;;;;;;;;;5031678;28;20071;-72
2022/11/08 05:33:06;;;;;;;21.42;14.23;;;;;;;;;;5030374;28;20074;-72
2022/11/08 05:35:35;;;;;;;26.27;15.57;;;;;;;;;;5030197;28;20099;-71
2022/11/08 05:38:00;;;;;;;28.70;15.88;;;;;;;;;;5030230;28;20036;-71
2022/11/08 05:40:26;;;;;;;28.20;14.98;;;;;;;;;;5031766;28;20041;-71
2022/11/08 05:42:54;;;;;;;29.70;14.90;;;;;;;;;;5031384;28;20029;-71
2022/11/08 05:45:20;;;;;;;25.42;14.65;;;;;;;;;;5031036;28;20758;-71
2022/11/08 05:47:46;;;;;;;26.08;15.02;;;;;;;;;;5030360;28;20500;-72
2022/11/08 05:50:12;;;;;;;25.73;15.15;;;;;;;;;;5029789;28;20033;-72
2022/11/08 05:52:37;;;;;;;29.33;15.55;;;;;;;;;;5027833;28;20385;-72
2022/11/08 05:55:03;;;;;;;29.15;16.50;;;;;;;;;;5029683;28;20041;-72
2022/11/08 05:57:28;;;;;;;25.17;15.98;;;;;;;;;;5028137;28;20036;-72
2022/11/08 05:59:54;;;;;;;26.95;16.02;;;;;;;;;;5029197;28;20105;-72
2022/11/08 06:02:19;;;;;;;30.10;15.82;;;;;;;;;;5028222;28;20520;-71
2022/11/08 06:04:44;;;;;;;28.30;16.52;;;;;;;;;;5029682;28;20083;-71
2022/11/08 06:07:10;;;;;;;30.67;16.75;;;;;;;;;;5029471;28;20021;-71
2022/11/08 06:09:35;;;;;;;29.13;16.17;;;;;;;;;;5029527;28;20532;-72
2022/11/08 06:12:00;;;;;;;30.25;16.35;;;;;;;;;;5028758;28;20030;-71
2022/11/08 06:14:26;;;;;;;27.40;16.10;;;;;;;;;;5029149;28;20044;-71
2022/11/08 06:16:51;;;;;;;28.20;16.73;;;;;;;;;;5029825;28;20029;-71
2022/11/08 06:19:17;;;;;;;36.42;21.75;;;;;;;;;;5029016;28;20497;-71
2022/11/08 06:21:42;;;;;;;29.45;17.98;;;;;;;;;;5029356;28;20556;-71
2022/11/08 06:24:07;;;;;;;31.00;17.95;;;;;;;;;;5029110;28;20113;-71
2022/11/08 06:26:33;;;;;;;30.88;17.70;;;;;;;;;;5028994;28;20108;-71
2022/11/08 06:28:59;;;;;;;28.75;17.50;;;;;;;;;;5029053;28;20049;-72
2022/11/08 06:31:25;;;;;;;29.30;17.52;;;;;;;;;;5030286;28;20148;-71
2022/11/08 06:33:50;;;;;;;33.35;18.65;;;;;;;;;;5033171;28;20628;-72
2022/11/08 06:36:15;;;;;;;29.83;17.80;;;;;;;;;;5033409;28;20036;-71
2022/11/08 06:38:41;;;;;;;28.95;17.90;;;;;;;;;;5032775;28;20052;-71
2022/11/08 06:41:06;;;;;;;27.92;18.40;;;;;;;;;;5031497;28;20072;-71
2022/11/08 06:43:31;;;;;;;34.20;18.75;;;;;;;;;;5032832;28;20060;-71
2022/11/08 06:46:01;;;;;;;32.03;18.30;;;;;;;;;;5025004;28;20037;-71
2022/11/08 06:48:26;;;;;;;29.38;17.65;;;;;;;;;;5029808;28;20051;-72
2022/11/08 06:50:51;;;;;;;31.15;17.23;;;;;;;;;;5031537;28;20025;-71
2022/11/08 06:53:16;;;;;;;36.28;20.42;;;;;;;;;;5032179;28;20026;-75
2022/11/08 06:55:42;;;;;;;31.90;18.42;;;;;;;;;;5033581;28;20033;-75
2022/11/08 06:58:08;;;;;;;28.90;17.25;;;;;;;;;;5016753;28;20065;-74
2022/11/08 07:00:34;;;;;;;34.22;18.60;;;;;;;;;;5031816;28;20033;-74
2022/11/08 07:03:00;;;;;;;32.67;19.08;;;;;;;;;;5031702;28;20440;-73
2022/11/08 07:05:25;;;;;;;33.85;17.77;;;;;;;;;;5031301;28;20041;-73
2022/11/08 07:07:51;;;;;;;31.95;19.38;;;;;;;;;;5032334;28;20491;-74
2022/11/08 07:10:21;;;;;;;32.45;18.88;;;;;;;;;;5030498;28;20030;-74
2022/11/08 07:12:47;;;;;;;;;;;;;;;;;;5032161;28;20033;-71
2022/11/08 07:15:13;;;;;;;30.23;17.63;;;;;;;;;;5031325;28;20357;-74
2022/11/08 07:17:38;;;;;;;28.60;18.25;;;;;;;;;;5030886;28;20485;-71
2022/11/08 07:20:04;;;;;;;24.70;16.30;;;;;;;;;;5032861;28;20025;-71
2022/11/08 07:22:29;;;;;;;24.77;14.75;;;;;;;;;;5032133;28;20399;-71
2022/11/08 07:24:54;;;;;;;20.33;13.18;;;;;;;;;;5029756;28;20017;-71
2022/11/08 07:27:20;;;;;;;19.10;13.40;;;;;;;;;;5030928;28;20071;-71
2022/11/08 07:29:45;;;;;;;21.30;13.25;;;;;;;;;;5029607;28;20046;-71
2022/11/08 07:32:12;;;;;;;21.95;13.68;;;;;;;;;;5030913;28;20041;-71
2022/11/08 07:34:37;;;;;;;18.17;12.98;;;;;;;;;;5029729;28;20446;-71
2022/11/08 07:37:02;;;;;;;23.25;14.27;;;;;;;;;;5029451;28;20086;-71
2022/11/08 07:39:27;;;;;;;22.40;14.52;;;;;;;;;;5031170;28;20063;-71
2022/11/08 07:41:53;;;;;;;24.80;15.13;;;;;;;;;;5030400;28;20030;-71
2022/11/08 07:44:18;;;;;;;23.05;13.52;;;;;;;;;;5030572;28;20029;-71
2022/11/08 07:46:45;;;;;;;21.65;13.65;;;;;;;;;;5029346;28;20025;-71
2022/11/08 07:49:10;;;;;;;23.15;13.18;;;;;;;;;;5030690;28;20059;-71
2022/11/08 07:51:35;;;;;;;25.75;14.63;;;;;;;;;;5029098;28;20041;-71
2022/11/08 07:54:00;;;;;;;22.45;14.40;;;;;;;;;;5030306;28;20029;-71
2022/11/08 07:56:26;;;;;;;23.65;14.50;;;;;;;;;;5030192;28;20116;-71
2022/11/08 07:58:52;;;;;;;24.05;14.10;;;;;;;;;;5028947;28;20065;-71
2022/11/08 08:01:17;;;;;;;22.67;12.77;;;;;;;;;;5030852;28;20174;-71
2022/11/08 08:03:42;;;;;;;20.42;12.65;;;;;;;;;;5029338;28;20025;-71
2022/11/08 08:06:08;;;;;;;23.55;12.73;;;;;;;;;;5028387;28;20046;-71
2022/11/08 08:08:34;;;;;;;18.40;11.02;;;;;;;;;;5030520;28;20078;-71
2022/11/08 08:10:59;;;;;;;19.50;11.63;;;;;;;;;;5028652;28;20180;-71
2022/11/08 08:13:25;;;;;;;18.95;11.20;;;;;;;;;;5030262;28;20021;-71
2022/11/08 08:15:50;;;;;;;13.27;10.05;;;;;;;;;;5029836;28;20076;-71
2022/11/08 08:18:19;;;;;;;20.98;10.63;;;;;;;;;;5030110;28;20064;-71
2022/11/08 08:20:45;;;;;;;18.40;10.23;;;;;;;;;;5030660;28;20108;-70
2022/11/08 08:23:10;;;;;;;11.98;8.60;;;;;;;;;;5030873;28;20109;-71
2022/11/08 08:25:36;;;;;;;12.10;8.05;;;;;;;;;;5032057;28;20519;-72
2022/11/08 08:28:01;;;;;;;10.93;7.78;;;;;;;;;;5032487;28;20036;-72
2022/11/08 08:30:28;;;;;;;12.52;8.20;;;;;;;;;;5032776;28;20408;-71
2022/11/08 08:32:59;;;;;;;14.68;9.18;;;;;;;;;;5014759;28;20030;-72
2022/11/08 08:35:25;;;;;;;16.95;11.70;;;;;;;;;;5032505;28;20072;-72
2022/11/08 08:37:50;;;;;;;23.42;13.73;;;;;;;;;;5030930;28;20079;-72
2022/11/08 08:40:15;;;;;;;21.08;13.02;;;;;;;;;;5031995;28;20112;-74
2022/11/08 08:42:41;;;;;;;17.02;11.25;;;;;;;;;;5031143;28;20029;-74
2022/11/08 08:45:07;;;;;;;14.15;10.23;;;;;;;;;;5030738;28;20076;-74
2022/11/08 08:47:32;;;;;;;11.68;8.18;;;;;;;;;;5030677;28;20045;-74
2022/11/08 08:49:57;;;;;;;11.07;7.70;;;;;;;;;;5032499;28;20039;-75
2022/11/08 08:52:23;;;;;;;8.65;7.20;;;;;;;;;;5031065;28;20026;-75
2022/11/08 08:54:48;;;;;;;10.18;6.70;;;;;;;;;;5032727;28;20025;-75
2022/11/08 08:57:13;;;;;;;9.10;6.60;;;;;;;;;;5034281;28;20351;-75
2022/11/08 08:59:39;;;;;;;9.80;5.93;;;;;;;;;;5035074;28;20080;-74
2022/11/08 09:02:05;;;;;;;10.45;5.60;;;;;;;;;;5030748;28;20678;-74
2022/11/08 09:04:30;;;;;;;9.60;6.25;;;;;;;;;;5031324;28;20068;-75
2022/11/08 09:06:55;;;;;;;14.68;6.85;;;;;;;;;;5031896;28;20017;-74
2022/11/08 09:09:21;;;;;;;12.95;6.30;;;;;;;;;;5031737;28;20056;-74
2022/11/08 09:11:47;;;;;;;10.77;6.45;;;;;;;;;;5030384;28;20017;-74
2022/11/08 09:14:13;;;;;;;10.88;6.68;;;;;;;;;;5016482;28;20036;-74
2022/11/08 09:16:38;;;;;;;11.40;6.68;;;;;;;;;;5034152;28;20033;-74
2022/11/08 09:19:04;;;;;;;13.30;6.45;;;;;;;;;;5011792;28;20116;-75
2022/11/08 09:21:29;;;;;;;13.82;6.57;;;;;;;;;;5011783;28;20061;-75
2022/11/08 09:23:54;;;;;;;11.98;6.50;;;;;;;;;;5011675;28;20076;-74
2022/11/08 09:26:20;;;;;;;9.70;6.03;;;;;;;;;;4993672;28;20038;-74
2022/11/08 09:28:45;;;;;;;9.90;5.65;;;;;;;;;;5011707;28;20034;-75
2022/11/08 09:31:11;;;;;;;10.18;6.03;;;;;;;;;;5012243;28;20049;-74
2022/11/08 09:33:38;;;;;;;8.43;4.90;;;;;;;;;;5009048;28;20025;-74
2022/11/08 09:36:03;;;;;;;11.63;5.70;;;;;;;;;;5009673;28;20041;-74
2022/11/08 09:38:29;;;;;;;8.50;5.03;;;;;;;;;;5008536;28;20034;-75
2022/11/08 09:40:55;;;;;;;7.38;4.90;;;;;;;;;;5012058;28;20022;-75
2022/11/08 09:43:20;;;;;;;8.10;4.68;;;;;;;;;;5012538;28;20121;-74
2022/11/08 09:45:46;;;;;;;9.23;4.90;;;;;;;;;;5011292;28;20115;-71
2022/11/08 09:48:18;;;;;;;6.57;4.63;;;;;;;;;;5009856;28;20501;-74
2022/11/08 09:50:44;;;;;;;6.75;4.63;;;;;;;;;;5011043;28;20026;-72
2022/11/08 09:53:12;;;;;;;7.47;4.38;;;;;;;;;;5012074;28;20367;-72
2022/11/08 09:55:43;;;;;;;3.75;3.42;;;;;;;;;;5009557;28;20045;-72
2022/11/08 09:58:30;;;;;;;5.15;3.00;;;;;;;;;;5010465;28;20029;-72
2022/11/08 10:00:57;;;;;;;3.95;3.08;;;;;;;;;;5011817;28;20065;-74
2022/11/08 10:03:23;;;;;;;3.33;2.97;;;;;;;;;;5012730;28;20033;-74
2022/11/08 10:05:53;;;;;;;4.82;2.83;;;;;;;;;;5011743;28;20057;-74
2022/11/08 10:08:25;;;;;;;4.10;2.53;;;;;;;;;;5015709;28;20508;-74
2022/11/08 10:11:03;;;;;;;3.10;2.80;;;;;;;;;;5015095;28;20450;-74
2022/11/08 10:13:47;;;;;;;3.10;2.72;;;;;;;;;;5014549;28;20030;-75
2022/11/08 10:16:12;;;;;;;6.68;3.00;;;;;;;;;;5011117;28;20041;-75
2022/11/08 10:18:44;;;;;;;3.30;3.00;;;;;;;;;;5011474;28;20029;-74
2022/11/08 10:21:28;;;;;;;5.25;2.55;;;;;;;;;;5013323;28;20034;-74
2022/11/08 10:24:01;;;;;;;3.72;2.90;;;;;;;;;;5011515;28;20042;-74
2022/11/08 10:26:35;;;;;;;3.03;2.72;;;;;;;;;;5011758;28;20034;-74
2022/11/08 10:29:27;;;;;;;3.10;2.65;;;;;;;;;;5011454;28;20048;-74
2022/11/08 10:32:16;;;;;;;3.40;2.40;;;;;;;;;;5005249;28;20118;-74
2022/11/08 10:34:54;;;;;;;2.90;2.40;;;;;;;;;;5002954;28;20477;-74
2022/11/08 10:37:21;;;;;;;3.70;2.97;;;;;;;;;;5009376;28;20030;-74
2022/11/08 10:39:55;;;;;;;4.47;2.70;;;;;;;;;;5006237;28;20021;-75
2022/11/08 10:42:29;;;;;;;3.28;2.97;;;;;;;;;;5010926;28;20037;-74
2022/11/08 10:44:54;;;;;;;3.35;2.75;;;;;;;;;;5011172;28;20042;-74
2022/11/08 10:47:22;;;;;;;2.65;2.42;;;;;;;;;;5010547;28;20091;-74
2022/11/08 10:49:48;;;;;;;3.47;2.42;;;;;;;;;;5011110;28;20359;-74
2022/11/08 10:52:13;;;;;;;2.97;2.17;;;;;;;;;;5010748;28;20025;-74
2022/11/08 10:54:49;;;;;;;2.42;1.90;;;;;;;;;;5008728;28;20036;-75
2022/11/08 10:57:26;;;;;;;3.80;2.05;;;;;;;;;;5010283;28;20042;-74
2022/11/08 10:59:52;;;;;;;2.30;2.08;;;;;;;;;;5010498;28;20128;-75
2022/11/08 11:02:21;;;;;;;2.20;2.10;;;;;;;;;;5010628;28;20053;-75
2022/11/08 11:04:46;;;;;;;3.35;2.20;;;;;;;;;;5008997;28;20105;-75
2022/11/08 11:07:26;;;;;;;3.08;2.40;;;;;;;;;;5009048;28;20026;-74
2022/11/08 11:09:51;;;;;;;1.77;1.67;;;;;;;;;;5010504;28;20038;-75
2022/11/08 11:12:17;;;;;;;3.17;2.10;;;;;;;;;;5010173;28;20033;-74
2022/11/08 11:14:42;;;;;;;2.30;2.00;;;;;;;;;;5010721;28;20037;-74
2022/11/08 11:17:10;;;;;;;2.50;2.28;;;;;;;;;;5009699;28;20026;-74
2022/11/08 11:19:35;;;;;;;2.63;2.00;;;;;;;;;;5010067;28;20454;-75
2022/11/08 11:22:05;;;;;;;2.00;1.77;;;;;;;;;;5010372;28;20037;-74
2022/11/08 11:24:31;;;;;;;2.50;1.90;;;;;;;;;;5009941;28;20397;-74
2022/11/08 11:26:56;;;;;;;6.28;2.35;;;;;;;;;;5009752;28;20022;-74
2022/11/08 11:29:36;;;;;;;2.50;2.00;;;;;;;;;;4948979;28;1342313;-74
2022/11/08 11:32:20;;;;;;;3.65;2.33;;;;;;;;;;4973824;28;20121;-74
2022/11/08 11:34:45;;;;;;;2.90;2.03;;;;;;;;;;4990976;28;20037;-75
2022/11/08 11:37:11;;;;;;;2.70;2.50;;;;;;;;;;4995038;28;20444;-76
2022/11/08 11:39:39;;;;;;;3.42;2.30;;;;;;;;;;4996219;28;20046;-76
2022/11/08 11:42:23;;;;;;;4.07;2.22;;;;;;;;;;4975801;28;20087;-76
2022/11/08 11:45:08;;;;;;;2.15;2.00;;;;;;;;;;4991697;28;20125;-75
2022/11/08 11:47:36;;;;;;;2.67;2.10;;;;;;;;;;4992038;28;20034;-75
2022/11/08 11:50:10;;;;;;;2.35;1.75;;;;;;;;;;4991401;28;20023;-75
2022/11/08 11:52:35;;;;;;;2.55;2.10;;;;;;;;;;4973483;28;20380;-75
2022/11/08 11:55:01;;;;;;;2.72;2.25;;;;;;;;;;4990449;28;20018;-75
2022/11/08 11:57:26;;;;;;;2.17;1.88;;;;;;;;;;4990862;28;20041;-75
2022/11/08 12:00:00;;;;;;;2.67;2.03;;;;;;;;;;4990962;28;20101;-75
2022/11/08 12:02:25;;;;;;;2.20;2.00;;;;;;;;;;4973784;28;20037;-74
2022/11/08 12:04:59;;;;;;;2.78;2.25;;;;;;;;;;4990871;28;20023;-74
2022/11/08 12:07:26;;;;;;;3.58;2.22;;;;;;;;;;4973527;28;20105;-74
2022/11/08 12:09:54;;;;;;;3.00;2.13;;;;;;;;;;4973583;28;20021;-75
2022/11/08 12:12:32;;;;;;;2.45;2.13;;;;;;;;;;4991303;28;20038;-74
2022/11/08 12:15:04;;;;;;;4.95;2.25;;;;;;;;;;4991827;28;20070;-74
2022/11/08 12:17:32;;;;;;;2.10;1.88;;;;;;;;;;4972720;28;20383;-74
2022/11/08 12:20:06;;;;;;;3.03;2.28;;;;;;;;;;4973490;28;20046;-74
2022/11/08 12:22:44;;;;;;;3.17;2.70;;;;;;;;;;4974450;28;20088;-74
2022/11/08 12:25:10;;;;;;;2.80;2.28;;;;;;;;;;4991045;28;20549;-77
2022/11/08 12:28:00;;;;;;;4.10;2.05;;;;;;;;;;4993782;28;20101;-77
2022/11/08 12:30:26;;;;;;;;;;;;;;;;;;4992844;28;20035;-70
2022/11/08 12:33:03;;;;;;;6.83;2.10;;;;;;;;;;4995061;28;19928;-74
2022/11/08 12:35:35;;;;;;;5.13;2.58;;;;;;;;;;4993033;28;20034;-70
2022/11/08 12:38:14;;;;;;;4.57;2.20;;;;;;;;;;4993167;28;20113;-68
2022/11/08 12:40:45;;;;;;;3.10;1.92;;;;;;;;;;4992891;28;20129;-74
2022/11/08 12:43:28;;;;;;;4.28;1.98;;;;;;;;;;4992628;28;20456;-67
2022/11/08 12:46:11;;;;;;;4.75;2.63;;;;;;;;;;4975339;28;20379;-67
2022/11/08 12:48:47;;;;;;;4.45;1.70;;;;;;;;;;4975907;28;20061;-70
2022/11/08 12:51:28;;;;;;;10.27;3.20;;;;;;;;;;4975873;28;20041;-69
2022/11/08 12:53:53;;;;;;;3.45;2.40;;;;;;;;;;4975589;28;20518;-68
2022/11/08 12:56:21;;;;;;;5.07;2.70;;;;;;;;;;4992684;28;20061;-68
2022/11/08 12:58:51;;;;;;;2.55;1.20;;;;;;;;;;4975073;28;20034;-71
2022/11/08 13:01:17;;;;;;;4.00;1.42;;;;;;;;;;4975201;28;20030;-68
2022/11/08 13:03:44;;;;;;;7.13;2.38;;;;;;;;;;4974841;28;20032;-71
2022/11/08 13:06:16;;;;;;;8.73;2.50;;;;;;;;;;4992132;28;20113;-68
2022/11/08 13:08:49;;;;;;;3.42;2.78;;;;;;;;;;4992449;28;20065;-71
2022/11/08 13:11:20;;;;;;;4.20;2.30;;;;;;;;;;4992326;28;20053;-75
2022/11/08 13:13:49;;;;;;;4.90;2.08;;;;;;;;;;4974411;28;20033;-75
2022/11/08 13:16:15;;;;;;;3.28;2.20;;;;;;;;;;4991543;28;20116;-75
2022/11/08 13:18:46;;;;;;;3.65;1.98;;;;;;;;;;4973874;28;20066;-75
2022/11/08 13:21:26;;;;;;;3.05;2.65;;;;;;;;;;4991697;28;20034;-75
2022/11/08 13:24:12;;;;;;;3.55;2.25;;;;;;;;;;4973875;28;20475;-74
2022/11/08 13:26:41;;;;;;;4.97;2.70;;;;;;;;;;4951100;28;20042;-74
2022/11/08 13:29:15;;;;;;;4.30;2.67;;;;;;;;;;4991964;28;20056;-70
2022/11/08 13:31:41;;;;;;;3.13;2.20;;;;;;;;;;4992426;28;20034;-73
2022/11/08 13:34:25;;;;;;;4.03;2.28;;;;;;;;;;4974479;28;20034;-73
2022/11/08 13:37:09;;;;;;;3.88;2.58;;;;;;;;;;4991676;28;20085;-73
2022/11/08 13:39:53;;;;;;;5.47;2.63;;;;;;;;;;4991625;28;20027;-73
2022/11/08 13:42:19;;;;;;;3.00;2.40;;;;;;;;;;4996011;28;20117;-73
2022/11/08 13:44:53;;;;;;;4.22;2.67;;;;;;;;;;4995542;28;20097;-74
2022/11/08 13:47:30;;;;;;;3.25;2.60;;;;;;;;;;4995594;28;20069;-74
2022/11/08 13:50:15;;;;;;;5.32;2.70;;;;;;;;;;4995903;28;20022;-75
2022/11/08 13:52:45;;;;;;;5.82;3.08;;;;;;;;;;4995037;28;20177;-75
2022/11/08 13:55:29;;;;;;;7.80;3.30;;;;;;;;;;4977452;28;20105;-75
2022/11/08 13:57:59;;;;;;;11.18;5.63;;;;;;;;;;4977610;28;20601;-74
2022/11/08 14:00:33;;;;;;;11.90;5.38;;;;;;;;;;4995429;28;20474;-74
2022/11/08 14:02:59;;;;;;;13.07;7.47;;;;;;;;;;4978123;28;20463;-75
2022/11/08 14:05:25;;;;;;;12.43;7.13;;;;;;;;;;4994790;28;20030;-73
2022/11/08 14:08:01;;;;;;;16.55;7.07;;;;;;;;;;4995683;28;20048;-70
2022/11/08 14:10:30;;;;;;;15.68;6.93;;;;;;;;;;4995728;28;20069;-74
2022/11/08 14:12:58;;;;;;;12.35;4.85;;;;;;;;;;4995493;28;20022;-76
2022/11/08 14:15:26;;;;;;;12.65;5.65;;;;;;;;;;4995351;28;20054;-76
2022/11/08 14:17:52;;;;;;;16.02;7.10;;;;;;;;;;4995258;28;20072;-75
2022/11/08 14:20:30;;;;;;;26.35;16.70;;;;;;;;;;4977921;28;20030;-76
2022/11/08 14:22:56;;;;;;;26.73;16.45;;;;;;;;;;4995596;28;20375;-76
2022/11/08 14:25:29;;;;;;;38.17;27.00;;;;;;;;;;4992936;28;20022;-75
2022/11/08 14:27:56;;;;;;;30.40;20.60;;;;;;;;;;4993186;28;20022;-75
2022/11/08 14:30:22;;;;;;;25.70;18.13;;;;;;;;;;4994110;28;20030;-75
2022/11/08 14:32:48;;;;;;;28.02;18.30;;;;;;;;;;4974936;28;20026;-75
2022/11/08 14:35:13;;;;;;;21.10;12.68;;;;;;;;;;4991391;28;20033;-75
2022/11/08 14:37:41;;;;;;;19.83;13.00;;;;;;;;;;4993068;28;20022;-66
2022/11/08 14:40:14;;;;;;;24.08;14.20;;;;;;;;;;4994779;28;20109;-68
2022/11/08 14:42:42;;;;;;;30.67;16.08;;;;;;;;;;4961530;28;20065;-71
2022/11/08 14:45:11;;;;;;;164.95;127.47;;;;;;;;;;4994498;28;20445;-70
2022/11/08 14:47:39;;;;;;;147.95;113.90;;;;;;;;;;4993521;28;20034;-71
2022/11/08 14:50:14;;;;;;;91.28;63.80;;;;;;;;;;4993859;28;20022;-70